Time;durP1;ratioP1;P1;durP2;ratioP2;P2;SDS_P1;SDS_P2;PMS_P1;PMS_P2;Temp;Humidity;BMP_temperature;BMP_pressure;BME280_temperature;BME280_humidity;BME280_pressure;Samples;Min_cycle;Max_cycle;Signal;HPM_P1;HPM_P2
2021/01/19 00:01:32;;;;;;;;;;;2.60;99.90;;;;;;5082062;28;20393;-71
2021/01/19 00:03:58;;;;;;;;;;;2.60;99.90;;;;;;5074884;28;19924;-70
2021/01/19 00:06:24;;;;;;;;;;;2.70;99.90;;;;;;5073672;28;20400;-71
2021/01/19 00:08:50;;;;;;;;;;;2.70;99.90;;;;;;5073658;28;19924;-71
2021/01/19 00:11:17;;;;;;;;;;;2.80;99.90;;;;;;5090023;28;20372;-71
2021/01/19 00:13:43;;;;;;;;;;;2.70;99.90;;;;;;5092725;28;19966;-71
2021/01/19 00:16:09;;;;;;;;;;;2.70;99.90;;;;;;5093920;28;19924;-71
2021/01/19 00:18:35;;;;;;;;;;;2.70;99.90;;;;;;5085428;28;19939;-71
2021/01/19 00:54:36;;;;;;;;;;;2.70;99.90;;;;;;5091920;28;19955;-71
2021/01/19 00:57:02;;;;;;;;;;;2.70;99.90;;;;;;5082752;28;19932;-71
2021/01/19 00:59:28;;;;;;;;;;;2.60;99.90;;;;;;5092475;28;19924;-71
2021/01/19 01:01:54;;;;;;;;;;;2.70;99.90;;;;;;5091526;28;20285;-71
2021/01/19 01:04:20;;;;;;;;;;;2.70;99.90;;;;;;5080921;28;19925;-71
2021/01/19 01:06:51;;;;;;;;;;;2.60;99.90;;;;;;5072695;28;19928;-71
2021/01/19 01:09:17;;;;;;;;;;;2.60;99.90;;;;;;5072702;28;19932;-71
2021/01/19 01:11:44;;;;;;;;;;;2.60;99.90;;;;;;5072184;28;19924;-71
2021/01/19 01:14:10;;;;;;;;;;;2.60;99.90;;;;;;5092339;28;19932;-71
2021/01/19 01:16:37;;;;;;;;;;;2.60;99.90;;;;;;5092549;28;19928;-71
2021/01/19 01:19:03;;;;;;;;;;;2.60;99.90;;;;;;5073942;28;19924;-71
2021/01/19 01:21:29;;;;;;;;;;;2.60;99.90;;;;;;5072163;28;20286;-71
2021/01/19 01:23:55;;;;;;;;;;;2.60;99.90;;;;;;5074524;28;19951;-71
2021/01/19 01:26:23;;;;;;;;;;;2.60;99.90;;;;;;5092590;28;19924;-71
2021/01/19 01:28:50;;;;;;;;;;;2.60;99.90;;;;;;5091242;28;20295;-71
2021/01/19 01:31:19;;;;;;;;;;;2.60;99.90;;;;;;5091850;28;20305;-71
2021/01/19 01:33:45;;;;;;;;;;;2.60;99.90;;;;;;5092340;28;19924;-71
2021/01/19 01:36:11;;;;;;;;;;;2.70;99.90;;;;;;5092149;28;19931;-71
2021/01/19 01:38:37;;;;;;;;;;;2.60;99.90;;;;;;5092497;28;19970;-71
2021/01/19 01:41:11;;;;;;;;;;;2.60;99.90;;;;;;5092181;28;19931;-71
2021/01/19 01:43:37;;;;;;;;;;;4.90;99.90;;;;;;5091940;28;19951;-71
2021/01/19 01:46:03;;;;;;;;;;;2.60;99.90;;;;;;5092543;28;20377;-71
2021/01/19 01:48:29;;;;;;;;;;;2.60;99.90;;;;;;5078320;28;19954;-71
2021/01/19 01:50:55;;;;;;;;;;;2.60;99.90;;;;;;5071859;28;20431;-71
2021/01/19 01:53:21;;;;;;;;;;;2.60;99.90;;;;;;5072420;28;20270;-71
2021/01/19 01:55:48;;;;;;;;;;;2.60;99.90;;;;;;5071998;28;19931;-72
2021/01/19 01:58:13;;;;;;;;;;;2.60;99.90;;;;;;5083827;28;20301;-71
2021/01/19 02:00:39;;;;;;;;;;;2.60;99.90;;;;;;5087312;28;19932;-71
2021/01/19 02:03:06;;;;;;;;;;;2.60;99.90;;;;;;5075169;28;19924;-71
2021/01/19 02:05:32;;;;;;;;;;;2.60;99.90;;;;;;5079079;28;19931;-71
2021/01/19 02:08:05;;;;;;;;;;;2.50;99.90;;;;;;5096327;28;19924;-71
2021/01/19 02:10:34;;;;;;;;;;;2.60;99.90;;;;;;5095764;28;19944;-71
2021/01/19 02:13:04;;;;;;;;;;;2.60;99.90;;;;;;5096027;28;19924;-71
2021/01/19 02:15:45;;;;;;;;;;;2.60;99.90;;;;;;5094133;28;19924;-71
2021/01/19 02:18:23;;;;;;;;;;;2.60;99.90;;;;;;5080527;28;19931;-71
2021/01/19 02:21:24;;;;;;;;;;;2.60;99.90;;;;;;5075246;28;20325;-71
2021/01/19 02:23:53;;;;;;;;;;;2.60;99.90;;;;;;5049359;28;19956;-71
2021/01/19 02:26:26;;;;;;;;;;;2.60;99.90;;;;;;5052891;28;19931;-71
2021/01/19 02:28:53;;;;;;;;;;;2.60;99.90;;;;;;5052873;28;20020;-71
2021/01/19 02:31:25;;;;;;;;;;;2.60;99.90;;;;;;5052512;28;19925;-71
2021/01/19 02:33:55;;;;;;;;;;;2.60;99.90;;;;;;5052721;28;20420;-71
2021/01/19 02:36:25;;;;;;;;;;;2.60;99.90;;;;;;5053032;28;19928;-71
2021/01/19 02:38:54;;;;;;;;;;;2.60;99.90;;;;;;5052984;28;19925;-70
2021/01/19 02:41:20;;;;;;;;;;;2.50;99.90;;;;;;5052393;28;19925;-70
2021/01/19 02:43:49;;;;;;;;;;;2.50;99.90;;;;;;5052922;28;19936;-70
2021/01/19 02:46:18;;;;;;;;;;;2.50;99.90;;;;;;5052583;28;19992;-71
2021/01/19 02:48:44;;;;;;;;;;;2.50;99.90;;;;;;5052549;28;20472;-71
2021/01/19 02:51:10;;;;;;;;;;;2.50;99.90;;;;;;5052246;28;19925;-71
2021/01/19 02:53:36;;;;;;;;;;;2.50;99.90;;;;;;5052432;28;19936;-71
2021/01/19 02:56:04;;;;;;;;;;;2.50;99.90;;;;;;5052315;28;19940;-71
2021/01/19 02:58:47;;;;;;;;;;;2.40;99.90;;;;;;5052487;28;19932;-71
2021/01/19 03:01:18;;;;;;;;;;;2.50;99.90;;;;;;5079929;28;19924;-71
2021/01/19 03:03:45;;;;;;;;;;;2.40;99.90;;;;;;5079195;28;20438;-71
2021/01/19 03:06:13;;;;;;;;;;;2.40;99.90;;;;;;5074936;28;19925;-71
2021/01/19 03:11:42;;;;;;;;;;;2.50;99.90;;;;;;5091061;28;19923;-71
2021/01/19 03:17:47;;;;;;;;;;;2.40;99.90;;;;;;5080473;28;20288;-71
2021/01/19 03:20:14;;;;;;;;;;;2.40;99.90;;;;;;5093694;28;19928;-71
2021/01/19 03:22:41;;;;;;;;;;;2.40;99.90;;;;;;5087859;28;20276;-71
2021/01/19 03:25:08;;;;;;;;;;;2.40;99.90;;;;;;5078920;28;19924;-71
2021/01/19 03:27:34;;;;;;;;;;;2.50;99.90;;;;;;5093953;28;19924;-71
2021/01/19 03:30:00;;;;;;;;;;;2.40;99.90;;;;;;5093385;28;19924;-71
2021/01/19 03:32:26;;;;;;;;;;;2.40;99.90;;;;;;5093963;28;19935;-70
2021/01/19 03:34:52;;;;;;;;;;;2.40;99.90;;;;;;5094411;28;19925;-71
2021/01/19 03:37:18;;;;;;;;;;;2.40;99.90;;;;;;5094371;28;20301;-70
2021/01/19 03:39:45;;;;;;;;;;;2.40;99.90;;;;;;5088691;28;19932;-71
2021/01/19 03:42:11;;;;;;;;;;;2.40;99.90;;;;;;5073966;28;19931;-70
2021/01/19 03:44:37;;;;;;;;;;;2.40;99.90;;;;;;5083369;28;19935;-71
2021/01/19 03:47:04;;;;;;;;;;;2.40;99.90;;;;;;5094460;28;19931;-71
2021/01/19 03:49:30;;;;;;;;;;;2.40;99.90;;;;;;5094410;28;19928;-70
2021/01/19 03:51:56;;;;;;;;;;;2.40;99.90;;;;;;5093483;28;19947;-71
2021/01/19 03:54:22;;;;;;;;;;;2.40;99.90;;;;;;5094254;28;19924;-71
2021/01/19 03:56:48;;;;;;;;;;;2.50;99.90;;;;;;5082732;28;20292;-71
2021/01/19 03:59:15;;;;;;;;;;;2.40;99.90;;;;;;5074075;28;19925;-71
2021/01/19 04:01:41;;;;;;;;;;;2.40;99.90;;;;;;5073443;28;19924;-72
2021/01/19 04:04:07;;;;;;;;;;;2.40;99.90;;;;;;5073461;28;20396;-72
2021/01/19 04:06:33;;;;;;;;;;;2.40;99.90;;;;;;5073634;28;19925;-73
2021/01/19 04:08:59;;;;;;;;;;;2.40;99.90;;;;;;5073742;28;19928;-72
2021/01/19 04:11:25;;;;;;;;;;;2.40;99.90;;;;;;5073211;28;20302;-71
2021/01/19 04:13:52;;;;;;;;;;;2.40;99.90;;;;;;5093628;28;19924;-71
2021/01/19 04:16:18;;;;;;;;;;;2.40;99.90;;;;;;5093571;28;19924;-71
2021/01/19 04:18:44;;;;;;;;;;;2.40;99.90;;;;;;5093517;28;19977;-71
2021/01/19 04:21:10;;;;;;;;;;;2.40;99.90;;;;;;5093493;28;19931;-71
2021/01/19 04:23:37;;;;;;;;;;;2.40;99.90;;;;;;5093074;28;20411;-71
2021/01/19 04:26:03;;;;;;;;;;;2.40;99.90;;;;;;5093000;28;20372;-71
2021/01/19 04:28:29;;;;;;;;;;;2.40;99.90;;;;;;5080332;28;19925;-71
2021/01/19 04:30:55;;;;;;;;;;;2.40;99.90;;;;;;5072764;28;19924;-71
2021/01/19 04:33:21;;;;;;;;;;;2.40;99.90;;;;;;5073346;28;19931;-71
2021/01/19 04:35:47;;;;;;;;;;;2.30;99.90;;;;;;5073002;28;19924;-71
2021/01/19 04:38:13;;;;;;;;;;;2.30;99.90;;;;;;5090964;28;19962;-71
2021/01/19 04:40:39;;;;;;;;;;;2.30;99.90;;;;;;5093022;28;19924;-71
2021/01/19 04:43:05;;;;;;;;;;;2.30;99.90;;;;;;5092706;28;19924;-71
2021/01/19 04:45:32;;;;;;;;;;;2.30;99.90;;;;;;5093056;28;19932;-72
2021/01/19 04:47:59;;;;;;;;;;;2.30;99.90;;;;;;5092974;28;19924;-71
2021/01/19 04:50:25;;;;;;;;;;;2.30;99.90;;;;;;5092840;28;19924;-71
2021/01/19 04:52:53;;;;;;;;;;;2.30;99.90;;;;;;5092609;28;19931;-71
2021/01/19 04:55:22;;;;;;;;;;;2.30;99.90;;;;;;5092918;28;19977;-71
2021/01/19 04:57:53;;;;;;;;;;;2.30;99.90;;;;;;5092884;28;19924;-71
2021/01/19 05:00:23;;;;;;;;;;;2.40;99.90;;;;;;5092588;28;20297;-71
2021/01/19 05:03:00;;;;;;;;;;;2.30;99.90;;;;;;5092758;28;19924;-71
2021/01/19 05:05:42;;;;;;;;;;;2.30;99.90;;;;;;5081070;28;19942;-71
2021/01/19 05:08:24;;;;;;;;;;;2.30;99.90;;;;;;5072556;28;19924;-71
2021/01/19 05:11:09;;;;;;;;;;;2.30;99.90;;;;;;5072391;28;19928;-73
2021/01/19 05:13:48;;;;;;;;;;;2.30;99.90;;;;;;5086737;28;19924;-73
2021/01/19 05:16:15;;;;;;;;;;;2.30;99.90;;;;;;5080047;28;19931;-72
2021/01/19 05:18:42;;;;;;;;;;;2.30;99.90;;;;;;5072560;28;20007;-73
2021/01/19 05:21:09;;;;;;;;;;;2.30;99.90;;;;;;5071932;28;20008;-73
2021/01/19 05:23:35;;;;;;;;;;;2.30;99.90;;;;;;5086611;28;19931;-73
2021/01/19 05:26:03;;;;;;;;;;;2.30;99.90;;;;;;5092280;28;19928;-71
2021/01/19 05:28:30;;;;;;;;;;;2.30;99.90;;;;;;5083926;28;20301;-70
2021/01/19 05:30:56;;;;;;;;;;;2.30;99.90;;;;;;5081149;28;19946;-69
2021/01/19 05:33:22;;;;;;;;;;;2.30;99.90;;;;;;5079232;28;19924;-72
2021/01/19 05:35:48;;;;;;;;;;;2.30;99.90;;;;;;5091768;28;19924;-72
2021/01/19 05:38:14;;;;;;;;;;;2.20;99.90;;;;;;5082542;28;19932;-75
2021/01/19 05:40:44;;;;;;;;;;;2.30;99.90;;;;;;5071963;28;19925;-68
2021/01/19 05:43:10;;;;;;;;;;;2.20;99.90;;;;;;5072067;28;19928;-70
2021/01/19 05:45:36;;;;;;;;;;;2.30;99.90;;;;;;5072121;28;19978;-67
2021/01/19 05:48:12;;;;;;;;;;;2.20;99.90;;;;;;5072035;28;19978;-70
2021/01/19 05:50:38;;;;;;;;;;;2.20;99.90;;;;;;5071924;28;19970;-70
2021/01/19 05:53:12;;;;;;;;;;;2.20;99.90;;;;;;5081983;28;19982;-70
2021/01/19 05:55:40;;;;;;;;;;;2.20;99.90;;;;;;5092184;28;20334;-71
2021/01/19 05:58:11;;;;;;;;;;;2.20;99.90;;;;;;5081923;28;19935;-70
2021/01/19 06:00:38;;;;;;;;;;;2.20;99.90;;;;;;5071632;28;19996;-72
2021/01/19 06:03:13;;;;;;;;;;;2.20;99.90;;;;;;5072145;28;20292;-72
2021/01/19 06:05:39;;;;;;;;;;;2.20;99.90;;;;;;5072135;28;19924;-71
2021/01/19 06:08:08;;;;;;;;;;;2.20;99.90;;;;;;5071974;28;19975;-72
2021/01/19 06:10:35;;;;;;;;;;;2.20;99.90;;;;;;5071583;28;19924;-71
2021/01/19 06:13:01;;;;;;;;;;;2.20;99.90;;;;;;5071692;28;19925;-74
2021/01/19 06:15:28;;;;;;;;;;;2.20;99.90;;;;;;5072069;28;20361;-71
2021/01/19 06:17:54;;;;;;;;;;;2.20;99.90;;;;;;5071974;28;19978;-70
2021/01/19 06:20:20;;;;;;;;;;;2.20;99.90;;;;;;5071593;28;19928;-70
2021/01/19 06:22:46;;;;;;;;;;;2.20;99.90;;;;;;5071824;28;19924;-69
2021/01/19 06:25:12;;;;;;;;;;;2.20;99.90;;;;;;5077487;28;19928;-70
2021/01/19 06:27:39;;;;;;;;;;;2.20;99.90;;;;;;5092034;28;19924;-70
2021/01/19 06:30:08;;;;;;;;;;;2.20;99.90;;;;;;5091742;28;19924;-69
2021/01/19 06:32:34;;;;;;;;;;;2.20;99.90;;;;;;5091985;28;19924;-72
2021/01/19 06:35:09;;;;;;;;;;;2.20;99.90;;;;;;5092013;28;19931;-73
2021/01/19 06:37:35;;;;;;;;;;;2.20;99.90;;;;;;5091901;28;19932;-71
2021/01/19 06:40:01;;;;;;;;;;;2.20;99.90;;;;;;5084615;28;19924;-69
2021/01/19 06:42:29;;;;;;;;;;;2.20;99.90;;;;;;5071818;28;19998;-75
2021/01/19 06:44:56;;;;;;;;;;;2.30;99.90;;;;;;5071776;28;19932;-70
2021/01/19 06:47:23;;;;;;;;;;;2.30;99.90;;;;;;5072213;28;19924;-73
2021/01/19 06:49:50;;;;;;;;;;;2.30;99.90;;;;;;5075071;28;19924;-71
2021/01/19 06:52:17;;;;;;;;;;;2.30;99.90;;;;;;5075026;28;20369;-74
2021/01/19 06:55:03;;;;;;;;;;;2.30;99.90;;;;;;5081076;28;19975;-74
2021/01/19 06:57:30;;;;;;;;;;;2.30;99.90;;;;;;5095560;28;19924;-72
2021/01/19 07:00:05;;;;;;;;;;;2.30;99.90;;;;;;5094532;28;20439;-74
2021/01/19 07:02:34;;;;;;;;;;;3.40;99.90;;;;;;5095225;28;19931;-73
2021/01/19 07:05:07;;;;;;;;;;;2.30;99.90;;;;;;5095103;28;20031;-74
2021/01/19 07:07:36;;;;;;;;;;;2.30;99.90;;;;;;5079153;28;19983;-74
2021/01/19 07:10:07;;;;;;;;;;;2.30;99.90;;;;;;5074663;28;19925;-72
2021/01/19 07:12:52;;;;;;;;;;;2.30;99.90;;;;;;5074662;28;19924;-73
2021/01/19 07:15:21;;;;;;;;;;;2.30;99.90;;;;;;5074739;28;19925;-71
2021/01/19 07:17:59;;;;;;;;;;;2.20;99.90;;;;;;5076167;28;20329;-74
2021/01/19 07:20:29;;;;;;;;;;;2.20;99.90;;;;;;5094926;28;19931;-71
2021/01/19 07:22:58;;;;;;;;;;;2.20;99.90;;;;;;5094824;28;19931;-72
2021/01/19 07:25:25;;;;;;;;;;;2.20;99.90;;;;;;5094979;28;19924;-72
2021/01/19 07:27:51;;;;;;;;;;;2.30;99.90;;;;;;5094637;28;19924;-73
2021/01/19 07:30:17;;;;;;;;;;;2.30;99.90;;;;;;5094156;28;19986;-74
2021/01/19 07:32:47;;;;;;;;;;;2.40;99.90;;;;;;5094173;28;19931;-73
2021/01/19 07:35:13;;;;;;;;;;;2.40;99.90;;;;;;5094529;28;19971;-71
2021/01/19 07:37:40;;;;;;;;;;;2.40;99.90;;;;;;5094490;28;19939;-74
2021/01/19 07:40:16;;;;;;;;;;;2.40;99.90;;;;;;5094062;28;19931;-74
2021/01/19 07:42:42;;;;;;;;;;;2.40;99.90;;;;;;5094960;28;19924;-74
2021/01/19 07:45:08;;;;;;;;;;;2.50;99.90;;;;;;5083486;28;20402;-71
2021/01/19 07:47:35;;;;;;;;;;;2.50;99.90;;;;;;5094428;28;19924;-71
2021/01/19 07:50:03;;;;;;;;;;;2.50;99.90;;;;;;5093720;28;19931;-70
2021/01/19 07:52:34;;;;;;;;;;;2.50;99.90;;;;;;5094116;28;19924;-69
2021/01/19 07:55:11;;;;;;;;;;;2.50;99.90;;;;;;5094003;28;19969;-72
2021/01/19 07:57:37;;;;;;;;;;;3.90;99.90;;;;;;5094280;28;19935;-72
2021/01/19 08:00:04;;;;;;;;;;;2.50;99.90;;;;;;5093055;28;20289;-74
2021/01/19 08:02:30;;;;;;;;;;;2.60;99.90;;;;;;5092824;28;19935;-70
2021/01/19 08:05:00;;;;;;;;;;;2.50;99.90;;;;;;5094003;28;19925;-75
2021/01/19 08:07:37;;;;;;;;;;;2.60;99.90;;;;;;5093833;28;19971;-68
2021/01/19 08:10:03;;;;;;;;;;;2.70;99.90;;;;;;5092330;28;20438;-70
2021/01/19 08:12:35;;;;;;;;;;;2.70;99.90;;;;;;5093051;28;19924;-72
2021/01/19 08:15:03;;;;;;;;;;;2.70;99.90;;;;;;5093842;28;19924;-70
2021/01/19 08:17:35;;;;;;;;;;;2.70;99.90;;;;;;5093482;28;19924;-71
2021/01/19 08:20:04;;;;;;;;;;;2.80;99.90;;;;;;5093205;28;19925;-71
2021/01/19 08:22:31;;;;;;;;;;;2.80;99.90;;;;;;5093697;28;19943;-70
2021/01/19 08:25:00;;;;;;;;;;;2.80;99.90;;;;;;5093639;28;19928;-73
2021/01/19 08:27:27;;;;;;;;;;;2.80;99.90;;;;;;5093672;28;20047;-72
2021/01/19 08:29:53;;;;;;;;;;;2.80;99.90;;;;;;5093178;28;19970;-70
2021/01/19 08:32:19;;;;;;;;;;;2.80;99.90;;;;;;5092794;28;20339;-73
2021/01/19 08:34:45;;;;;;;;;;;2.90;99.90;;;;;;5078951;28;19971;-74
2021/01/19 08:37:16;;;;;;;;;;;2.90;99.90;;;;;;5073200;28;19974;-71
2021/01/19 08:39:49;;;;;;;;;;;2.90;99.90;;;;;;5086730;28;19931;-74
2021/01/19 08:42:15;;;;;;;;;;;2.90;99.90;;;;;;5093112;28;20374;-74
2021/01/19 08:44:41;;;;;;;;;;;3.00;99.90;;;;;;5094568;28;19931;-72
2021/01/19 08:47:07;;;;;;;;;;;3.00;99.90;;;;;;5092966;28;19928;-70
2021/01/19 08:49:34;;;;;;;;;;;3.00;99.90;;;;;;5093467;28;19931;-71
2021/01/19 08:52:00;;;;;;;;;;;3.00;99.90;;;;;;5092988;28;19924;-74
2021/01/19 08:54:30;;;;;;;;;;;3.00;99.90;;;;;;5092925;28;19924;-74
2021/01/19 08:56:57;;;;;;;;;;;3.10;99.90;;;;;;5093190;28;19973;-70
2021/01/19 08:59:23;;;;;;;;;;;3.10;99.90;;;;;;5092788;28;19924;-74
2021/01/19 09:01:49;;;;;;;;;;;3.10;99.90;;;;;;5092570;28;19924;-75
2021/01/19 09:04:22;;;;;;;;;;;3.20;99.90;;;;;;5084279;28;19928;-76
2021/01/19 09:06:48;;;;;;;;;;;3.20;99.90;;;;;;5072696;28;19924;-76
2021/01/19 09:09:19;;;;;;;;;;;3.20;99.90;;;;;;5072583;28;20374;-70
2021/01/19 09:11:45;;;;;;;;;;;3.20;99.90;;;;;;5073603;28;19932;-70
2021/01/19 09:14:12;;;;;;;;;;;3.20;99.90;;;;;;5072177;28;19942;-73
2021/01/19 09:16:38;;;;;;;;;;;3.20;99.90;;;;;;5072373;28;20587;-72
2021/01/19 09:19:05;;;;;;;;;;;3.30;99.90;;;;;;5072470;28;19931;-70
2021/01/19 09:21:32;;;;;;;;;;;3.30;99.90;;;;;;5072072;28;19924;-73
2021/01/19 09:23:59;;;;;;;;;;;3.30;99.90;;;;;;5079964;28;19946;-71
2021/01/19 09:26:24;;;;;;;;;;;3.40;99.90;;;;;;5092517;28;19924;-71
2021/01/19 09:28:51;;;;;;;;;;;3.40;99.90;;;;;;5085400;28;19947;-71
2021/01/19 09:31:19;;;;;;;;;;;3.40;99.90;;;;;;5072020;28;19931;-70
2021/01/19 09:33:46;;;;;;;;;;;3.50;99.90;;;;;;5072223;28;19924;-73
2021/01/19 09:36:13;;;;;;;;;;;3.50;99.90;;;;;;5072189;28;20384;-73
2021/01/19 09:38:39;;;;;;;;;;;3.50;99.90;;;;;;5072114;28;20393;-72
2021/01/19 09:41:06;;;;;;;;;;;3.50;99.90;;;;;;5089899;28;19924;-73
2021/01/19 09:43:32;;;;;;;;;;;3.50;99.90;;;;;;5092430;28;19950;-72
2021/01/19 09:46:03;;;;;;;;;;;3.50;99.90;;;;;;5092549;28;20044;-72
2021/01/19 09:48:31;;;;;;;;;;;3.50;99.90;;;;;;5092284;28;19970;-72
2021/01/19 09:50:58;;;;;;;;;;;3.60;99.90;;;;;;5091900;28;19935;-71
2021/01/19 09:53:28;;;;;;;;;;;3.70;99.90;;;;;;5092181;28;19928;-72
2021/01/19 09:55:54;;;;;;;;;;;3.70;99.90;;;;;;5073277;28;19932;-72
2021/01/19 09:58:21;;;;;;;;;;;3.70;99.90;;;;;;5071890;28;19988;-72
2021/01/19 10:00:47;;;;;;;;;;;3.70;99.90;;;;;;5076336;28;19928;-69
2021/01/19 10:03:15;;;;;;;;;;;3.80;99.90;;;;;;5092253;28;20385;-71
2021/01/19 10:05:42;;;;;;;;;;;3.80;99.90;;;;;;5092024;28;19971;-73
2021/01/19 10:08:08;;;;;;;;;;;3.80;99.90;;;;;;5087012;28;19928;-70
2021/01/19 10:10:35;;;;;;;;;;;3.90;99.90;;;;;;5073608;28;20718;-73
2021/01/19 10:13:02;;;;;;;;;;;3.80;99.90;;;;;;5071813;28;19924;-71
2021/01/19 10:15:28;;;;;;;;;;;3.80;99.90;;;;;;5071848;28;19954;-72
2021/01/19 10:17:56;;;;;;;;;;;3.80;99.90;;;;;;5071934;28;19924;-72
2021/01/19 10:20:23;;;;;;;;;;;3.80;99.90;;;;;;5074560;28;20427;-68
2021/01/19 10:22:56;;;;;;;;;;;3.80;99.90;;;;;;5092726;28;19924;-68
2021/01/19 10:25:27;;;;;;;;;;;3.70;99.90;;;;;;5096004;28;19932;-71
2021/01/19 10:27:55;;;;;;;;;;;3.70;99.90;;;;;;5095901;28;20337;-72
2021/01/19 10:30:26;;;;;;;;;;;3.70;99.90;;;;;;5095692;28;19924;-71
2021/01/19 10:32:52;;;;;;;;;;;3.70;99.90;;;;;;5095684;28;19931;-68
2021/01/19 10:35:29;;;;;;;;;;;3.60;99.90;;;;;;5095328;28;19924;-68
2021/01/19 10:37:57;;;;;;;;;;;3.60;99.90;;;;;;5095731;28;20292;-72
2021/01/19 10:40:23;;;;;;;;;;;3.70;99.90;;;;;;5095419;28;19928;-70
2021/01/19 10:42:49;;;;;;;;;;;3.60;99.90;;;;;;5095600;28;19924;-70
2021/01/19 10:45:26;;;;;;;;;;;3.60;99.90;;;;;;5095565;28;19924;-69
2021/01/19 10:47:52;;;;;;;;;;;3.60;99.90;;;;;;5095419;28;19924;-74
2021/01/19 10:50:18;;;;;;;;;;;3.60;99.90;;;;;;5094893;28;20299;-73
2021/01/19 10:52:51;;;;;;;;;;;3.70;99.90;;;;;;5095352;28;19924;-70
2021/01/19 10:55:19;;;;;;;;;;;3.70;99.90;;;;;;5082444;28;20282;-69
2021/01/19 10:57:45;;;;;;;;;;;3.70;99.90;;;;;;5075554;28;19954;-69
2021/01/19 11:00:12;;;;;;;;;;;3.70;99.90;;;;;;5074774;28;19931;-69
2021/01/19 11:02:38;;;;;;;;;;;3.70;99.90;;;;;;5090302;28;19925;-73
2021/01/19 11:05:04;;;;;;;;;;;3.60;99.90;;;;;;5079055;28;19928;-72
2021/01/19 11:07:30;;;;;;;;;;;3.60;99.90;;;;;;5074690;28;19924;-72
2021/01/19 11:09:56;;;;;;;;;;;3.60;99.90;;;;;;5074631;28;19978;-72
2021/01/19 11:12:23;;;;;;;;;;;3.70;99.90;;;;;;5074701;28;20381;-72
2021/01/19 11:14:49;;;;;;;;;;;3.60;99.90;;;;;;5074677;28;19925;-71
2021/01/19 11:17:15;;;;;;;;;;;3.60;99.90;;;;;;5074836;28;19924;-71
2021/01/19 11:19:41;;;;;;;;;;;3.60;99.90;;;;;;5074682;28;19924;-71
2021/01/19 11:22:07;;;;;;;;;;;3.50;99.90;;;;;;5074500;28;20530;-71
2021/01/19 11:24:33;;;;;;;;;;;3.40;99.90;;;;;;5074392;28;20301;-72
2021/01/19 11:26:59;;;;;;;;;;;3.40;99.90;;;;;;5074583;28;19947;-72
2021/01/19 11:29:26;;;;;;;;;;;3.30;99.90;;;;;;5081424;28;19924;-72
2021/01/19 11:31:52;;;;;;;;;;;3.20;99.90;;;;;;5094574;28;19971;-72
2021/01/19 11:34:18;;;;;;;;;;;3.20;99.90;;;;;;5093469;28;20288;-72
2021/01/19 11:36:44;;;;;;;;;;;3.00;99.90;;;;;;5094648;28;19931;-72
2021/01/19 11:39:10;;;;;;;;;;;2.90;99.90;;;;;;5094444;28;19924;-72
2021/01/19 11:41:38;;;;;;;;;;;2.90;99.90;;;;;;5094206;28;19932;-72
2021/01/19 11:44:05;;;;;;;;;;;2.80;99.90;;;;;;5094090;28;19924;-73
2021/01/19 11:46:32;;;;;;;;;;;2.80;99.90;;;;;;5094546;28;19928;-72
2021/01/19 11:49:00;;;;;;;;;;;2.70;99.90;;;;;;5094488;28;19924;-72
2021/01/19 11:51:27;;;;;;;;;;;2.70;99.90;;;;;;5086548;28;19924;-72
2021/01/19 11:53:53;;;;;;;;;;;2.60;99.90;;;;;;5073919;28;19932;-72
2021/01/19 11:56:20;;;;;;;;;;;2.70;99.90;;;;;;5074009;28;19931;-72
2021/01/19 11:58:46;;;;;;;;;;;2.60;99.90;;;;;;5074111;28;19928;-71
2021/01/19 12:01:17;;;;;;;;;;;2.60;99.90;;;;;;5073706;28;19924;-72
2021/01/19 12:03:43;;;;;;;;;;;2.40;99.90;;;;;;5073586;28;19932;-70
2021/01/19 12:06:09;;;;;;;;;;;2.40;99.90;;;;;;5073652;28;19924;-69
2021/01/19 12:08:35;;;;;;;;;;;2.30;99.90;;;;;;5073698;28;19924;-69
2021/01/19 12:11:01;;;;;;;;;;;2.20;99.90;;;;;;5073354;28;19924;-70
2021/01/19 12:13:27;;;;;;;;;;;2.10;99.90;;;;;;5073234;28;19932;-69
2021/01/19 12:15:53;;;;;;;;;;;2.10;99.90;;;;;;5073716;28;19924;-70
2021/01/19 12:18:19;;;;;;;;;;;2.00;99.90;;;;;;5073535;28;20388;-70
2021/01/19 12:20:46;;;;;;;;;;;1.90;99.90;;;;;;5072911;28;20003;-70
2021/01/19 12:23:13;;;;;;;;;;;1.70;99.90;;;;;;5073277;28;19924;-70
2021/01/19 12:25:39;;;;;;;;;;;1.60;99.90;;;;;;5090539;28;19924;-73
2021/01/19 12:28:05;;;;;;;;;;;1.50;99.90;;;;;;5086325;28;20390;-71
2021/01/19 12:30:30;;;;;;;;;;;1.50;99.90;;;;;;5073132;28;19925;-73
2021/01/19 12:32:57;;;;;;;;;;;1.40;99.90;;;;;;5073168;28;20389;-70
2021/01/19 12:35:22;;;;;;;;;;;1.40;99.90;;;;;;5072972;28;20404;-72
2021/01/19 12:37:52;;;;;;;;;;;1.40;99.90;;;;;;5073079;28;19925;-73
2021/01/19 12:40:18;;;;;;;;;;;1.30;99.90;;;;;;5079766;28;19925;-77
2021/01/19 12:42:44;;;;;;;;;;;1.30;99.90;;;;;;5072980;28;19977;-69
2021/01/19 12:45:11;;;;;;;;;;;1.20;99.90;;;;;;5072739;28;19925;-74
2021/01/19 12:47:37;;;;;;;;;;;1.20;99.90;;;;;;5072713;28;19961;-70
2021/01/19 12:50:03;;;;;;;;;;;1.20;99.90;;;;;;5072946;28;19928;-69
2021/01/19 12:52:29;;;;;;;;;;;1.10;99.90;;;;;;5072691;28;19932;-70
2021/01/19 12:54:56;;;;;;;;;;;1.10;99.90;;;;;;5086859;28;19924;-70
2021/01/19 12:57:22;;;;;;;;;;;1.10;99.90;;;;;;5072674;28;19925;-69
2021/01/19 12:59:48;;;;;;;;;;;1.00;99.90;;;;;;5072531;28;19941;-70
2021/01/19 13:02:14;;;;;;;;;;;1.00;99.90;;;;;;5072478;28;20552;-70
2021/01/19 13:04:41;;;;;;;;;;;0.90;99.90;;;;;;5072675;28;19924;-70
2021/01/19 13:07:07;;;;;;;;;;;1.00;99.90;;;;;;5086679;28;19924;-73
2021/01/19 13:09:33;;;;;;;;;;;1.00;99.90;;;;;;5092682;28;20330;-73
2021/01/19 13:12:00;;;;;;;;;;;1.00;99.90;;;;;;5092521;28;19978;-72
2021/01/19 13:14:26;;;;;;;;;;;1.00;99.90;;;;;;5092776;28;19981;-69
2021/01/19 13:16:53;;;;;;;;;;;1.00;99.90;;;;;;5092672;28;19940;-70
2021/01/19 13:19:19;;;;;;;;;;;1.00;99.90;;;;;;5092691;28;19924;-69
2021/01/19 13:21:48;;;;;;;;;;;1.00;99.90;;;;;;5091868;28;20292;-69
2021/01/19 13:24:15;;;;;;;;;;;1.00;99.90;;;;;;5091972;28;20570;-72
2021/01/19 13:26:47;;;;;;;;;;;1.00;99.90;;;;;;5070917;28;20439;-74
2021/01/19 13:29:14;;;;;;;;;;;1.00;99.90;;;;;;5072347;28;20361;-68
2021/01/19 13:31:40;;;;;;;;;;;1.00;99.90;;;;;;5071280;28;20400;-70
2021/01/19 13:34:07;;;;;;;;;;;3.60;99.90;;;;;;5072139;28;19925;-70
2021/01/19 13:36:32;;;;;;;;;;;1.00;99.90;;;;;;5072160;28;19924;-71
2021/01/19 13:38:59;;;;;;;;;;;1.00;99.90;;;;;;5072163;28;20280;-69
2021/01/19 13:41:26;;;;;;;;;;;1.00;99.90;;;;;;5072036;28;19932;-69
2021/01/19 13:43:52;;;;;;;;;;;1.10;99.90;;;;;;5071733;28;19928;-69
2021/01/19 13:46:18;;;;;;;;;;;1.10;99.90;;;;;;5072169;28;20019;-70
2021/01/19 13:48:44;;;;;;;;;;;1.10;99.90;;;;;;5071737;28;19932;-74
2021/01/19 13:51:11;;;;;;;;;;;1.10;99.90;;;;;;5072212;28;19925;-73
2021/01/19 13:53:40;;;;;;;;;;;1.10;99.90;;;;;;5082936;28;20404;-72
2021/01/19 13:56:06;;;;;;;;;;;1.10;99.90;;;;;;5092210;28;19931;-71
2021/01/19 13:58:32;;;;;;;;;;;1.00;99.90;;;;;;5094493;28;19970;-72
2021/01/19 14:00:58;;;;;;;;;;;1.10;99.90;;;;;;5096133;28;19975;-71
2021/01/19 14:03:25;;;;;;;;;;;1.10;99.90;;;;;;5090508;28;19930;-72
2021/01/19 14:05:51;;;;;;;;;;;1.10;99.90;;;;;;5075932;28;20373;-71
2021/01/19 14:08:17;;;;;;;;;;;1.10;99.90;;;;;;5075770;28;19931;-70
2021/01/19 14:10:43;;;;;;;;;;;1.10;99.90;;;;;;5075598;28;20332;-70
2021/01/19 14:13:09;;;;;;;;;;;1.10;99.90;;;;;;5075472;28;19978;-69
2021/01/19 14:15:35;;;;;;;;;;;1.10;99.90;;;;;;5075795;28;20381;-70
2021/01/19 14:18:01;;;;;;;;;;;1.10;99.90;;;;;;5075589;28;19925;-69
2021/01/19 14:20:28;;;;;;;;;;;1.10;99.90;;;;;;5075656;28;19932;-72
2021/01/19 14:22:54;;;;;;;;;;;1.20;99.90;;;;;;5075384;28;19925;-70
2021/01/19 14:25:20;;;;;;;;;;;1.10;99.90;;;;;;5091277;28;20547;-75
2021/01/19 14:27:46;;;;;;;;;;;1.10;99.90;;;;;;5095614;28;19924;-73
2021/01/19 14:30:12;;;;;;;;;;;1.10;99.90;;;;;;5095772;28;19924;-74
2021/01/19 14:32:38;;;;;;;;;;;1.10;99.90;;;;;;5095334;28;20449;-74
2021/01/19 14:35:05;;;;;;;;;;;1.20;99.90;;;;;;5095715;28;19928;-73
2021/01/19 14:37:32;;;;;;;;;;;1.20;99.90;;;;;;5095513;28;20388;-72
2021/01/19 14:39:58;;;;;;;;;;;1.20;99.90;;;;;;5095676;28;19928;-73
2021/01/19 14:42:24;;;;;;;;;;;1.20;99.90;;;;;;5095266;28;19932;-73
2021/01/19 14:44:52;;;;;;;;;;;1.20;99.90;;;;;;5095678;28;19932;-73
2021/01/19 14:47:18;;;;;;;;;;;1.20;99.90;;;;;;5095309;28;19928;-73
2021/01/19 14:49:44;;;;;;;;;;;1.20;99.90;;;;;;5094856;28;19924;-72
2021/01/19 14:52:10;;;;;;;;;;;1.20;99.90;;;;;;5095035;28;19968;-72
2021/01/19 14:54:37;;;;;;;;;;;1.20;99.90;;;;;;5095036;28;19931;-73
2021/01/19 14:57:03;;;;;;;;;;;1.30;99.90;;;;;;5086226;28;20309;-73
2021/01/19 14:59:29;;;;;;;;;;;1.20;99.90;;;;;;5078579;28;19935;-72
2021/01/19 15:01:55;;;;;;;;;;;1.20;99.90;;;;;;5074252;28;19925;-73
2021/01/19 15:04:21;;;;;;;;;;;1.30;99.90;;;;;;5074898;28;19928;-72
2021/01/19 15:06:48;;;;;;;;;;;1.30;99.90;;;;;;5074642;28;19924;-73
2021/01/19 15:09:14;;;;;;;;;;;1.30;99.90;;;;;;5074650;28;20305;-73
2021/01/19 15:11:41;;;;;;;;;;;1.30;99.90;;;;;;5074174;28;20344;-73
2021/01/19 15:14:08;;;;;;;;;;;1.40;99.90;;;;;;5080629;28;19928;-73